Главная страница
METAR-TAF:

METAR-TAF

Аэропорты :

Гибралтар, Гибралтар

широта: 36-09N, долгота: 005-21W, высота над уровнем моря: 5 м

Текущие метеонаблюдения

Эта сводка был подготовлена 18 минут назад, в 12:50 UTC
Ветер 10 Узел от западный
Температура 23°C
Влажность 57%
Давление 1013 hPa
Видимость 10 км и более
небольшая облачность на высоте 4000 фута

METAR: LXGB 161250Z 26010KT 9999 FEW040 23/14 Q1013 NOSIG

Время: 15:08 (13:08 UTC)

Прогноз

Эта сводка был подготовлена 2 часа и 39 минут назад, в 10:29 UTC
Прогноз действительный с 16-го 12 UTC до 16-го 21 UTC
Ветер 12 Узел от западный
Видимость 10 км и более
небольшая облачность на высоте 3000 фута

TAF: LXGB 161029Z 1612/1621 27012KT 9999 FEW030

Метеонаблюдения и прогнозы для более 4000 аэропортов (сводки METAR и TAF).

Имеющиеся станции представлены на карте желтыми и красными точками.

Чтобы увидеть название станции, наведите на нее мышь.

Затем щелкните, чтобы увидеть метеонаблюдения и метеопрогнозы.

Управление картой: чтобы увеличить масштаб, щелкните зеленые кнопки с черным крестиком; чтобы уменьшить масштаб, щелкните зеленую кнопку с тире; для просмотра соседних карт щелкайте зеленые стрелки.


METAR-TAF: